首页
METAR-TAF:

METAR-TAF

机场 :

滑铁卢, 艾奥瓦州, 美国

纬度: 42-33-16N, 经度: 092-24-04W, 海拔: 266米

当前天气观测

该预报发布于24分钟前的14:54 UTC
风速5节,风向西转西南
温度 21°C
湿度 83%
气压 1012 hPa
能見度: 16.1公里
少量云层高于3600英尺

METAR: KALO 221454Z 25005KT 10SM FEW036 21/18 A2987 RMK AO2 SLP110 60002 T02110183 51013

时间: 10:18 (15:18 UTC)

预报

该预报发布于4小时和20分钟前的10:58 UTC
预报有效从22日的 11点(UTC)到 23日的 06点(UTC)
风速3节,风向多变
能見度: 9.7公里
多云层高于5000英尺
阴天层高于10000英尺
小阵雨, 轻雾
从 22日的 1400点(UTC)
风速5节,风向多变
能見度: 10公里
少量云层高于1400英尺
散云层高于2200英尺, 积雨云.
阴天层高于4500英尺
附近有雷暴
从 22日的 1900点(UTC)
风速8节,风向北转西北
能見度: 10公里
散云层高于3500英尺
阴天层高于6000英尺
附近有阵雨
从 23日的 0300点(UTC)
风速5节,风向多变
能見度: 10公里
散云层高于7000英尺
多云层高于12000英尺

TAF: KALO 221058Z 2211/2306 VRB03KT 6SM -SHRA BR BKN050 OVC100 FM221400 VRB05KT P6SM VCTS FEW014 SCT022CB OVC045 FM221900 34008KT P6SM VCSH SCT035 OVC060 FM230300 VRB05KT P6SM SCT070 BKN120

超过4000个机场的气象观测和天气预报(METAR&TAF报告)。

可查询的气象台以黄色和红色小点在地图上表示。

将鼠标移到小点上方,可查看气象台名称。

然后点击查看天气观测和预报。

如需切换地图:点击带黑十字的绿色按钮放大地图;点击带横线的绿色按钮缩小地图;或者点击绿色箭头查看邻近地区的地图。


METAR-TAF: